Time;durP1;ratioP1;P1;durP2;ratioP2;P2;SDS_P1;SDS_P2;PMS_P1;PMS_P2;Temp;Humidity;BMP_temperature;BMP_pressure;BME280_temperature;BME280_humidity;BME280_pressure;Samples;Min_cycle;Max_cycle;Signal;HPM_P1;HPM_P2
2022/10/22 03:02:23;;;;;;;0.80;0.10;;;14.30;99.90;;;;;;5360890;23;84053;-70
2022/10/22 03:04:49;;;;;;;0.65;0.00;;;14.30;99.90;;;;;;4887849;28;81347;-69
2022/10/22 03:07:15;;;;;;;0.82;0.00;;;14.30;99.90;;;;;;4892417;28;81540;-70
2022/10/22 03:09:41;;;;;;;0.90;0.10;;;14.40;99.90;;;;;;4894884;28;81736;-71
2022/10/22 03:12:07;;;;;;;0.52;0.00;;;14.40;99.90;;;;;;4890350;28;83981;-68
2022/10/22 03:14:34;;;;;;;1.00;0.00;;;14.40;99.90;;;;;;4889862;28;83356;-70
2022/10/22 03:16:59;;;;;;;0.93;0.10;;;14.40;99.90;;;;;;4896763;28;81421;-71
2022/10/22 03:19:25;;;;;;;0.45;0.00;;;14.40;99.90;;;;;;4889948;28;82185;-71
2022/10/22 03:22:02;;;;;;;1.17;0.00;;;14.40;99.90;;;;;;4890085;28;83116;-72
2022/10/22 03:24:34;;;;;;;;;;;14.30;99.90;;;;;;4888600;28;82772;-72
2022/10/22 03:27:00;;;;;;;1.25;0.10;;;14.30;99.90;;;;;;4891048;28;81815;-70
2022/10/22 03:29:26;;;;;;;1.63;0.03;;;14.20;99.90;;;;;;4893604;28;81629;-71
2022/10/22 03:31:53;;;;;;;0.90;0.10;;;14.20;99.90;;;;;;4895565;28;82290;-71
2022/10/22 03:34:19;;;;;;;1.50;0.00;;;14.10;99.90;;;;;;4894169;28;81769;-70
2022/10/22 03:36:45;;;;;;;0.70;0.05;;;14.10;99.90;;;;;;4888464;28;81703;-72
2022/10/22 03:39:13;;;;;;;4.65;1.58;;;14.10;99.90;;;;;;4887931;28;82258;-71
2022/10/22 03:41:40;;;;;;;2.42;0.70;;;14.00;99.90;;;;;;4890620;28;82771;-71
2022/10/22 03:44:06;;;;;;;3.90;0.60;;;14.00;99.90;;;;;;4891992;28;83251;-71
2022/10/22 03:46:31;;;;;;;3.08;0.77;;;14.10;99.90;;;;;;4885163;28;82592;-71
2022/10/22 03:48:57;;;;;;;2.22;0.10;;;14.10;99.90;;;;;;4894677;28;82092;-71
2022/10/22 03:51:25;;;;;;;0.80;0.10;;;14.10;99.90;;;;;;4889919;28;82830;-71
2022/10/22 03:53:51;;;;;;;2.60;0.10;;;14.10;99.90;;;;;;4886681;28;81920;-72
2022/10/22 03:56:17;;;;;;;1.50;0.30;;;14.10;99.90;;;;;;4890087;28;81627;-72
2022/10/22 03:58:42;;;;;;;1.20;0.20;;;14.10;99.90;;;;;;4889482;28;81302;-71
2022/10/22 04:01:11;;;;;;;0.93;0.10;;;14.10;99.90;;;;;;4882135;28;82611;-71
2022/10/22 04:03:38;;;;;;;0.93;0.10;;;14.10;99.90;;;;;;4904475;28;81927;-71
2022/10/22 04:06:09;;;;;;;2.45;0.20;;;14.00;99.90;;;;;;4912343;28;81338;-71
2022/10/22 04:08:34;;;;;;;1.85;0.25;;;14.00;99.90;;;;;;4909836;28;82053;-72
2022/10/22 04:11:00;;;;;;;2.25;0.20;;;13.80;99.90;;;;;;4906982;28;83059;-71
2022/10/22 04:13:26;;;;;;;1.65;0.20;;;13.70;99.90;;;;;;4910197;28;82115;-71
2022/10/22 04:15:52;;;;;;;0.80;0.30;;;13.70;99.90;;;;;;4902923;28;83323;-71
2022/10/22 04:18:19;;;;;;;2.08;0.30;;;13.70;99.90;;;;;;4909372;28;82009;-71
2022/10/22 04:20:45;;;;;;;3.28;0.20;;;13.60;99.90;;;;;;4902789;28;81827;-71
2022/10/22 04:23:11;;;;;;;5.05;0.70;;;13.60;99.90;;;;;;4912951;28;82059;-71
2022/10/22 04:25:37;;;;;;;3.75;1.55;;;13.50;99.90;;;;;;4913669;28;81215;-71
2022/10/22 04:28:06;;;;;;;3.97;1.60;;;13.50;99.90;;;;;;4910309;28;83595;-72
2022/10/22 04:30:32;;;;;;;2.88;0.80;;;13.50;99.90;;;;;;4904351;28;82662;-71
2022/10/22 04:32:58;;;;;;;2.20;0.50;;;13.60;99.90;;;;;;4906373;28;82080;-71
2022/10/22 04:35:24;;;;;;;1.02;0.25;;;13.60;99.90;;;;;;4905266;28;82330;-71
2022/10/22 04:37:50;;;;;;;2.50;0.22;;;13.70;99.90;;;;;;4908069;28;82094;-71
2022/10/22 04:40:16;;;;;;;0.80;0.10;;;13.70;99.90;;;;;;4907699;28;81394;-71
2022/10/22 04:42:41;;;;;;;0.88;0.10;;;13.70;99.90;;;;;;4908997;28;83592;-70
2022/10/22 04:45:07;;;;;;;1.90;0.10;;;13.80;99.90;;;;;;4908199;28;81973;-70
2022/10/22 04:47:33;;;;;;;1.40;0.10;;;13.80;99.90;;;;;;4907428;28;81760;-70
2022/10/22 04:49:59;;;;;;;1.45;0.20;;;13.90;99.90;;;;;;4912213;28;82170;-71
2022/10/22 04:52:24;;;;;;;0.50;0.10;;;13.90;99.90;;;;;;4911680;28;81200;-71
2022/10/22 04:54:50;;;;;;;2.00;0.10;;;13.90;99.90;;;;;;4912333;28;81965;-70
2022/10/22 04:57:16;;;;;;;1.05;0.10;;;13.90;99.90;;;;;;4904932;28;82693;-70
2022/10/22 04:59:41;;;;;;;0.88;0.10;;;13.90;99.90;;;;;;4911472;28;84809;-70
2022/10/22 05:02:07;;;;;;;0.45;0.10;;;13.90;99.90;;;;;;4907065;28;82029;-71
2022/10/22 05:04:33;;;;;;;1.55;0.20;;;13.90;99.90;;;;;;4913904;28;82027;-71
2022/10/22 05:06:58;;;;;;;0.82;0.30;;;13.90;99.90;;;;;;4912622;28;81976;-71
2022/10/22 05:09:24;;;;;;;0.90;0.10;;;13.90;99.90;;;;;;4914069;28;81935;-69
2022/10/22 05:11:51;;;;;;;0.60;0.10;;;13.90;99.90;;;;;;4915206;28;81884;-71
2022/10/22 05:14:20;;;;;;;1.48;0.10;;;14.00;99.90;;;;;;4915951;28;81769;-69
2022/10/22 05:16:46;;;;;;;0.45;0.10;;;14.00;99.90;;;;;;4915606;28;82155;-69
2022/10/22 05:19:25;;;;;;;0.50;0.00;;;14.00;99.90;;;;;;4908231;28;83620;-71
2022/10/22 05:21:53;;;;;;;0.50;0.00;;;14.00;99.90;;;;;;4913899;28;82033;-70
2022/10/22 05:24:19;;;;;;;0.85;0.10;;;14.00;99.90;;;;;;4914837;28;82834;-70
2022/10/22 05:26:44;;;;;;;0.73;0.10;;;14.00;99.90;;;;;;4910778;28;81701;-71
2022/10/22 05:29:10;;;;;;;1.83;0.15;;;14.10;99.90;;;;;;4913566;28;81595;-70
2022/10/22 05:31:37;;;;;;;0.52;0.10;;;14.10;99.90;;;;;;4906983;28;82077;-71
2022/10/22 05:34:03;;;;;;;1.25;0.28;;;14.10;99.90;;;;;;4904094;28;82726;-71
2022/10/22 05:36:29;;;;;;;1.20;0.20;;;14.10;99.90;;;;;;4908513;28;81908;-70
2022/10/22 05:38:56;;;;;;;1.50;0.10;;;14.10;99.90;;;;;;4916788;28;81284;-70
2022/10/22 05:41:24;;;;;;;0.50;0.20;;;14.10;99.90;;;;;;4906484;28;82098;-70
2022/10/22 05:43:53;;;;;;;1.73;0.25;;;14.10;99.90;;;;;;4910475;28;82668;-71
2022/10/22 05:46:20;;;;;;;1.58;0.20;;;14.10;99.90;;;;;;4902303;28;81836;-69
2022/10/22 05:48:58;;;;;;;0.60;0.10;;;14.20;99.90;;;;;;4912076;28;83250;-70
2022/10/22 05:51:25;;;;;;;1.20;0.20;;;14.20;99.90;;;;;;4915870;28;82182;-71
2022/10/22 05:53:53;;;;;;;0.60;0.10;;;14.20;99.90;;;;;;4913468;28;84315;-71
2022/10/22 05:56:19;;;;;;;0.60;0.10;;;14.20;99.90;;;;;;4904222;28;82904;-70
2022/10/22 05:58:45;;;;;;;0.73;0.10;;;14.30;99.90;;;;;;4911728;28;83182;-71
2022/10/22 06:01:17;;;;;;;1.23;0.00;;;14.30;99.90;;;;;;4906146;28;81993;-70
2022/10/22 06:03:43;;;;;;;0.50;0.15;;;14.40;99.90;;;;;;4910574;28;81632;-71
2022/10/22 06:06:29;;;;;;;0.52;0.10;;;14.50;99.90;;;;;;4906687;28;82369;-72
2022/10/22 06:08:58;;;;;;;0.40;0.00;;;14.50;99.90;;;;;;4908743;28;81318;-72
2022/10/22 06:11:24;;;;;;;0.45;0.00;;;14.50;99.90;;;;;;4912726;28;81982;-71
2022/10/22 06:13:50;;;;;;;0.45;0.03;;;14.50;99.90;;;;;;4912053;28;84308;-71
2022/10/22 06:16:16;;;;;;;0.68;0.10;;;14.50;99.90;;;;;;4910299;28;81599;-72
2022/10/22 06:18:42;;;;;;;1.58;0.10;;;14.60;99.90;;;;;;4905922;28;82471;-72
2022/10/22 06:21:10;;;;;;;1.75;0.10;;;14.60;99.90;;;;;;4907437;28;82010;-71
2022/10/22 06:23:37;;;;;;;2.05;0.10;;;14.70;99.90;;;;;;4911678;28;82393;-71
2022/10/22 06:26:04;;;;;;;0.93;0.13;;;14.70;99.90;;;;;;4909696;28;81712;-72
2022/10/22 06:28:30;;;;;;;0.70;0.10;;;14.80;99.90;;;;;;4913417;28;82330;-70
2022/10/22 06:30:57;;;;;;;0.60;0.00;;;14.80;99.90;;;;;;4912069;28;81863;-71
2022/10/22 06:33:23;;;;;;;0.70;0.10;;;14.90;99.90;;;;;;4908988;28;81509;-71
2022/10/22 06:35:49;;;;;;;0.90;0.05;;;14.90;99.90;;;;;;4911464;28;82359;-72
2022/10/22 06:38:15;;;;;;;0.20;0.00;;;14.90;99.90;;;;;;4908271;28;83051;-70
2022/10/22 06:40:42;;;;;;;0.70;0.10;;;14.90;99.90;;;;;;4912336;28;81940;-71
2022/10/22 06:43:09;;;;;;;0.20;0.00;;;15.00;99.90;;;;;;4910208;28;81894;-71
2022/10/22 06:45:34;;;;;;;0.90;0.00;;;15.00;99.90;;;;;;4916650;28;81284;-71
2022/10/22 06:48:00;;;;;;;1.75;0.00;;;15.10;99.90;;;;;;4915424;28;82016;-70
2022/10/22 06:50:26;;;;;;;0.40;0.03;;;15.10;99.90;;;;;;4912137;28;82032;-71
2022/10/22 06:52:52;;;;;;;0.30;0.00;;;15.20;99.90;;;;;;4913858;28;81728;-71
2022/10/22 06:55:17;;;;;;;0.82;0.00;;;15.20;99.90;;;;;;4906805;28;81280;-71
2022/10/22 06:57:43;;;;;;;0.70;0.10;;;15.30;99.90;;;;;;4911861;28;81922;-71
2022/10/22 07:00:09;;;;;;;0.40;0.00;;;15.30;99.90;;;;;;4910164;28;83475;-70
2022/10/22 07:02:35;;;;;;;5.18;0.00;;;15.40;99.90;;;;;;4910363;28;82917;-71
2022/10/22 07:05:00;;;;;;;1.20;0.10;;;15.40;99.90;;;;;;4913562;28;81721;-69
2022/10/22 07:07:26;;;;;;;2.25;0.00;;;15.50;99.90;;;;;;4914898;28;82217;-71
2022/10/22 07:09:51;;;;;;;0.30;0.00;;;15.50;99.90;;;;;;4914455;28;81213;-70
2022/10/22 07:12:17;;;;;;;0.35;0.00;;;15.50;99.50;;;;;;4914957;28;81566;-71
2022/10/22 07:14:43;;;;;;;0.85;0.00;;;15.50;99.90;;;;;;4918188;28;82154;-70
2022/10/22 07:17:09;;;;;;;0.20;0.00;;;15.50;99.20;;;;;;4916002;28;82119;-71
2022/10/22 07:19:35;;;;;;;0.80;0.00;;;15.50;98.50;;;;;;4914832;28;81847;-71
2022/10/22 07:22:00;;;;;;;0.40;0.10;;;15.60;98.30;;;;;;4910245;28;81886;-71
2022/10/22 07:24:26;;;;;;;1.48;0.00;;;15.60;98.80;;;;;;4915345;28;82020;-71
2022/10/22 07:26:52;;;;;;;0.30;0.00;;;15.70;98.50;;;;;;4908844;28;83715;-71
2022/10/22 07:29:17;;;;;;;0.60;0.10;;;15.70;97.50;;;;;;4909673;28;82478;-71
2022/10/22 07:31:43;;;;;;;0.20;0.00;;;15.70;96.20;;;;;;4907560;28;82070;-71
2022/10/22 07:34:09;;;;;;;0.88;0.10;;;15.70;96.60;;;;;;4910118;28;81794;-71
2022/10/22 07:36:35;;;;;;;0.43;0.00;;;15.80;96.40;;;;;;4911672;28;81744;-71
2022/10/22 07:39:02;;;;;;;0.20;0.00;;;15.90;96.70;;;;;;4906793;28;81645;-71
2022/10/22 07:41:29;;;;;;;0.45;0.05;;;15.90;96.10;;;;;;4909549;28;81164;-71
2022/10/22 07:43:56;;;;;;;1.10;0.20;;;15.90;96.10;;;;;;4910997;28;82091;-71
2022/10/22 07:46:22;;;;;;;0.65;0.00;;;15.80;94.70;;;;;;4905396;28;82323;-71
2022/10/22 07:48:48;;;;;;;0.25;0.00;;;15.90;95.60;;;;;;4906051;28;82578;-71
2022/10/22 07:51:15;;;;;;;0.60;0.05;;;16.00;96.00;;;;;;4908323;28;82453;-71
2022/10/22 07:53:40;;;;;;;0.30;0.03;;;16.10;95.60;;;;;;4910360;28;82862;-71
2022/10/22 07:56:06;;;;;;;0.40;0.00;;;16.10;94.90;;;;;;4905389;28;82236;-71
2022/10/22 07:58:33;;;;;;;0.30;0.00;;;16.20;95.20;;;;;;4909610;28;82343;-71
2022/10/22 08:01:00;;;;;;;1.70;0.00;;;16.20;94.20;;;;;;4905646;28;81511;-71
2022/10/22 08:03:27;;;;;;;0.85;0.10;;;16.30;95.00;;;;;;4910338;28;81214;-71
2022/10/22 08:05:53;;;;;;;0.70;0.10;;;16.30;94.20;;;;;;4909058;28;82203;-71
2022/10/22 08:08:19;;;;;;;1.35;0.10;;;16.30;94.40;;;;;;4910613;28;81414;-71
2022/10/22 08:10:46;;;;;;;0.43;0.00;;;16.40;94.10;;;;;;4919267;28;81895;-71
2022/10/22 08:13:12;;;;;;;2.00;0.10;;;16.40;93.20;;;;;;4909664;28;81235;-71
2022/10/22 08:15:38;;;;;;;3.38;0.10;;;16.50;93.50;;;;;;4907299;28;83086;-70
2022/10/22 08:18:04;;;;;;;1.38;0.28;;;16.50;93.30;;;;;;4910458;28;83755;-69
2022/10/22 08:20:30;;;;;;;2.03;0.20;;;16.70;93.00;;;;;;4906335;28;81447;-69
2022/10/22 08:22:55;;;;;;;1.00;0.10;;;16.80;93.00;;;;;;4915742;28;82062;-71
2022/10/22 08:25:21;;;;;;;2.33;0.10;;;16.90;91.20;;;;;;4907126;28;81349;-71
2022/10/22 08:27:47;;;;;;;0.30;0.00;;;17.10;91.70;;;;;;4909992;28;82013;-71
2022/10/22 08:30:13;;;;;;;1.27;0.10;;;17.20;91.50;;;;;;4908521;28;81788;-71
2022/10/22 08:32:39;;;;;;;2.42;0.10;;;17.30;91.60;;;;;;4911984;28;81314;-71
2022/10/22 08:35:05;;;;;;;1.73;0.20;;;17.40;90.50;;;;;;4911019;28;82141;-71
2022/10/22 08:37:30;;;;;;;3.75;0.10;;;17.50;88.00;;;;;;4913754;28;81116;-71
2022/10/22 08:39:56;;;;;;;0.40;0.00;;;17.60;87.60;;;;;;4913813;28;82525;-70
2022/10/22 08:42:53;;;;;;;0.30;0.30;;;17.70;85.50;;;;;;4915665;28;82061;-70
2022/10/22 08:45:53;;;;;;;0.85;0.00;;;18.10;85.20;;;;;;4917227;28;82569;-71
2022/10/22 08:48:37;;;;;;;0.88;0.10;;;18.10;84.60;;;;;;4909675;28;81869;-71
2022/10/22 08:51:03;;;;;;;0.30;0.10;;;18.20;83.20;;;;;;4911046;28;81698;-71
2022/10/22 08:53:37;;;;;;;0.82;0.10;;;18.20;83.00;;;;;;4917127;28;82200;-71
2022/10/22 08:56:03;;;;;;;0.10;0.00;;;18.40;83.00;;;;;;4914420;28;81533;-67
2022/10/22 08:58:29;;;;;;;1.00;0.10;;;18.10;82.80;;;;;;4919510;28;81320;-66
2022/10/22 09:01:04;;;;;;;0.63;0.00;;;18.00;82.80;;;;;;4917133;28;81765;-66
2022/10/22 09:03:58;;;;;;;0.50;0.20;;;17.90;82.80;;;;;;4909549;28;81190;-66
2022/10/22 09:06:26;;;;;;;0.22;0.08;;;18.20;81.20;;;;;;4920940;28;84586;-65
2022/10/22 09:08:53;;;;;;;0.85;0.20;;;18.30;81.30;;;;;;4914393;28;82084;-65
2022/10/22 09:11:37;;;;;;;1.92;0.10;;;18.50;81.20;;;;;;4910454;28;81327;-66
2022/10/22 09:14:04;;;;;;;0.98;0.20;;;18.80;80.20;;;;;;4911998;28;83005;-65
2022/10/22 09:16:55;;;;;;;0.50;0.15;;;20.20;76.60;;;;;;4918452;28;81886;-66
2022/10/22 09:19:39;;;;;;;1.10;0.30;;;21.30;72.80;;;;;;4913072;28;81442;-67
2022/10/22 09:22:14;;;;;;;1.23;0.68;;;23.50;66.60;;;;;;4906034;28;81748;-68
2022/10/22 09:24:43;;;;;;;2.42;0.32;;;25.30;62.00;;;;;;4912847;28;81904;-67
2022/10/22 09:27:26;;;;;;;1.00;0.40;;;26.30;57.40;;;;;;4912867;28;82289;-66
2022/10/22 09:29:52;;;;;;;1.15;0.63;;;26.60;56.00;;;;;;4917577;28;81931;-67
2022/10/22 09:32:18;;;;;;;1.95;0.50;;;26.10;57.00;;;;;;4915558;28;82936;-67
2022/10/22 09:34:45;;;;;;;0.75;0.52;;;26.20;55.70;;;;;;4913537;28;83556;-66
2022/10/22 09:37:11;;;;;;;1.42;0.40;;;26.60;55.80;;;;;;4911993;28;81911;-66
2022/10/22 09:39:40;;;;;;;0.95;0.32;;;26.90;53.80;;;;;;4919606;28;83233;-67
2022/10/22 09:42:07;;;;;;;2.25;0.40;;;27.30;54.80;;;;;;4916155;28;82807;-68
2022/10/22 09:44:35;;;;;;;3.33;0.40;;;27.30;52.10;;;;;;4913266;28;81452;-66
2022/10/22 09:47:23;;;;;;;0.80;0.32;;;27.60;52.20;;;;;;4910689;28;83803;-67
2022/10/22 09:49:49;;;;;;;1.75;0.40;;;26.80;52.70;;;;;;4915136;28;81491;-71
2022/10/22 09:52:29;;;;;;;0.77;0.32;;;26.70;54.20;;;;;;4913644;28;81766;-71
2022/10/22 09:54:56;;;;;;;1.25;0.60;;;27.90;52.10;;;;;;4911015;28;82018;-71
2022/10/22 09:57:23;;;;;;;1.00;0.90;;;28.70;50.30;;;;;;4912446;28;84178;-71
2022/10/22 09:59:52;;;;;;;1.00;0.55;;;29.00;49.10;;;;;;4911075;28;85356;-72
2022/10/22 10:02:21;;;;;;;2.83;0.70;;;30.00;46.70;;;;;;4911130;28;81626;-71
2022/10/22 10:04:49;;;;;;;1.15;0.57;;;31.10;45.50;;;;;;4915690;28;81692;-71
2022/10/22 10:07:16;;;;;;;;;;;32.20;44.50;;;;;;4915532;28;81749;-71
2022/10/22 10:09:42;;;;;;;0.98;0.68;;;32.90;43.00;;;;;;4916374;28;81713;-72
2022/10/22 10:12:33;;;;;;;0.95;0.85;;;33.00;40.70;;;;;;4910675;28;81730;-71
2022/10/22 10:15:16;;;;;;;3.88;1.52;;;32.50;41.20;;;;;;4913427;28;83778;-71
2022/10/22 10:18:03;;;;;;;2.20;0.45;;;31.60;42.60;;;;;;4911702;28;81939;-71
2022/10/22 10:21:04;;;;;;;1.75;0.38;;;30.50;45.20;;;;;;4911322;28;81959;-71
2022/10/22 10:23:43;;;;;;;0.95;0.55;;;29.20;46.80;;;;;;4911188;28;82269;-71
2022/10/22 10:26:27;;;;;;;1.80;0.40;;;27.70;49.60;;;;;;4915606;28;81958;-71
2022/10/22 10:29:24;;;;;;;2.58;0.43;;;26.40;51.40;;;;;;4913887;28;81674;-70
2022/10/22 10:32:14;;;;;;;1.95;0.35;;;25.40;52.70;;;;;;4915590;28;81929;-70
2022/10/22 10:34:56;;;;;;;1.60;0.63;;;24.50;55.80;;;;;;4920423;28;81602;-69
2022/10/22 10:37:45;;;;;;;1.55;0.30;;;23.80;57.10;;;;;;4910507;28;83145;-70
2022/10/22 10:40:36;;;;;;;0.80;0.20;;;23.20;58.70;;;;;;4917157;28;82413;-70
2022/10/22 10:43:18;;;;;;;2.13;0.30;;;22.70;60.80;;;;;;4910885;28;81185;-69
2022/10/22 10:46:13;;;;;;;0.45;0.10;;;22.20;63.40;;;;;;4917730;28;81733;-70
2022/10/22 10:48:49;;;;;;;4.03;0.17;;;21.90;62.40;;;;;;4912472;28;81996;-70
2022/10/22 10:51:48;;;;;;;2.00;0.25;;;21.70;64.20;;;;;;4914904;28;82457;-70
2022/10/22 10:54:26;;;;;;;0.63;0.30;;;21.50;63.70;;;;;;4915589;28;82795;-70
2022/10/22 10:56:55;;;;;;;0.82;0.10;;;21.30;66.30;;;;;;4915383;28;82629;-69
2022/10/22 10:59:52;;;;;;;2.25;0.10;;;21.20;65.50;;;;;;4920901;28;81818;-69
2022/10/22 11:03:04;;;;;;;0.40;0.10;;;21.10;65.60;;;;;;4911201;28;84062;-70
2022/10/22 11:05:51;;;;;;;0.20;0.00;;;21.10;65.40;;;;;;4914357;28;83323;-69
2022/10/22 11:08:22;;;;;;;1.10;0.22;;;21.10;65.30;;;;;;4917941;28;81191;-69
2022/10/22 11:11:02;;;;;;;0.65;0.10;;;21.00;64.50;;;;;;4920499;28;81283;-70
2022/10/22 11:13:28;;;;;;;1.02;0.20;;;20.90;66.80;;;;;;4913751;28;81983;-69
2022/10/22 11:16:03;;;;;;;0.40;0.10;;;20.90;65.20;;;;;;4916739;28;81955;-69
2022/10/22 11:18:40;;;;;;;0.22;0.10;;;20.90;66.10;;;;;;4918426;28;82160;-69
2022/10/22 11:21:20;;;;;;;0.85;0.00;;;20.80;66.60;;;;;;4918178;28;81793;-70
2022/10/22 11:23:52;;;;;;;1.05;0.20;;;20.80;64.80;;;;;;4917948;28;81509;-69
2022/10/22 11:26:42;;;;;;;0.40;0.10;;;20.80;64.90;;;;;;4920071;28;82905;-69
2022/10/22 11:29:16;;;;;;;0.90;0.20;;;20.80;65.20;;;;;;4915859;28;81229;-69
2022/10/22 11:31:43;;;;;;;0.40;0.10;;;20.70;65.50;;;;;;4904862;28;81908;-69
2022/10/22 11:34:17;;;;;;;2.55;0.10;;;20.60;65.40;;;;;;4913277;28;82754;-69
2022/10/22 11:36:45;;;;;;;0.10;0.00;;;20.70;64.30;;;;;;4919276;28;81970;-69
2022/10/22 11:39:41;;;;;;;0.55;0.10;;;20.70;63.70;;;;;;4921511;28;81323;-70
2022/10/22 11:42:09;;;;;;;;;;;20.70;64.30;;;;;;4915793;28;82322;-70
2022/10/22 11:44:56;;;;;;;0.40;0.20;;;20.60;63.90;;;;;;4918515;28;83959;-70
2022/10/22 11:47:45;;;;;;;2.78;0.10;;;20.60;65.20;;;;;;4916457;28;82886;-69
2022/10/22 11:50:24;;;;;;;3.70;0.35;;;20.60;65.20;;;;;;4918501;28;81610;-69
2022/10/22 11:53:13;;;;;;;4.25;0.32;;;20.50;66.60;;;;;;4914994;28;81555;-70
2022/10/22 11:55:50;;;;;;;;;;;20.50;64.70;;;;;;4909312;28;81639;-70
2022/10/22 11:58:38;;;;;;;0.20;0.00;;;20.50;64.60;;;;;;4919961;28;81538;-69
2022/10/22 12:01:06;;;;;;;0.20;0.00;;;20.50;64.20;;;;;;4918782;28;82113;-68
2022/10/22 12:03:32;;;;;;;2.10;0.03;;;20.50;63.50;;;;;;4920264;28;81035;-69
2022/10/22 12:06:15;;;;;;;0.65;0.20;;;20.50;64.30;;;;;;4922253;28;81964;-69
2022/10/22 12:08:52;;;;;;;1.60;0.30;;;20.60;64.20;;;;;;4925668;28;81944;-69
2022/10/22 12:11:21;;;;;;;1.85;0.10;;;20.60;64.50;;;;;;4925468;28;82300;-69
2022/10/22 12:14:13;;;;;;;0.60;0.10;;;20.60;63.90;;;;;;4920942;28;83363;-69
2022/10/22 12:16:42;;;;;;;0.93;0.10;;;20.70;64.10;;;;;;4921891;28;82045;-69
2022/10/22 12:19:14;;;;;;;0.45;0.13;;;20.60;63.00;;;;;;4922809;28;81929;-69
2022/10/22 12:21:43;;;;;;;2.20;0.03;;;20.60;64.20;;;;;;4907393;28;81349;-69
2022/10/22 12:24:14;;;;;;;2.28;0.10;;;20.60;63.00;;;;;;4917901;28;83572;-69
2022/10/22 12:26:40;;;;;;;3.42;0.10;;;20.70;63.50;;;;;;4920040;28;82260;-69
2022/10/22 12:29:11;;;;;;;0.73;0.28;;;20.70;63.50;;;;;;4915718;28;81846;-69
2022/10/22 12:31:38;;;;;;;3.97;0.20;;;20.70;63.50;;;;;;4911376;28;81504;-70
2022/10/22 12:34:04;;;;;;;3.45;0.10;;;20.80;64.00;;;;;;4915657;28;82001;-69
2022/10/22 12:36:33;;;;;;;2.72;0.10;;;20.80;63.90;;;;;;4923440;28;82820;-69
2022/10/22 12:39:01;;;;;;;2.63;0.03;;;20.70;63.10;;;;;;4921996;28;82891;-70
2022/10/22 12:41:34;;;;;;;0.50;0.10;;;20.70;62.40;;;;;;4918372;28;83034;-69
2022/10/22 12:44:02;;;;;;;0.32;0.13;;;20.70;63.60;;;;;;4922897;28;81853;-70
2022/10/22 12:46:31;;;;;;;0.68;0.25;;;20.70;63.20;;;;;;4919442;28;83561;-69
2022/10/22 12:49:02;;;;;;;0.40;0.10;;;20.80;63.30;;;;;;4917549;28;82023;-69
2022/10/22 12:51:28;;;;;;;1.40;0.28;;;20.70;63.80;;;;;;4924734;28;81880;-69
2022/10/22 12:54:02;;;;;;;1.45;0.40;;;20.80;64.00;;;;;;4914925;28;82777;-69
2022/10/22 12:56:31;;;;;;;0.75;0.20;;;20.80;64.30;;;;;;4919620;28;81819;-69
2022/10/22 12:59:09;;;;;;;0.50;0.20;;;20.90;64.50;;;;;;4914343;28;82008;-69
2022/10/22 13:01:40;;;;;;;1.55;0.15;;;21.00;68.60;;;;;;4921570;28;82523;-69
2022/10/22 13:04:20;;;;;;;2.55;0.13;;;20.90;69.20;;;;;;4922006;28;82331;-69
2022/10/22 13:06:49;;;;;;;0.73;0.20;;;20.80;70.20;;;;;;4915586;28;83332;-69
2022/10/22 13:09:21;;;;;;;1.83;0.20;;;20.70;71.00;;;;;;4919119;28;81630;-69
2022/10/22 13:12:03;;;;;;;1.25;0.10;;;20.70;70.90;;;;;;4914586;28;81276;-69
2022/10/22 13:14:32;;;;;;;4.13;0.20;;;20.70;70.20;;;;;;4913561;28;81794;-69
2022/10/22 13:17:22;;;;;;;3.03;0.10;;;20.60;70.80;;;;;;4920917;28;82276;-69
2022/10/22 13:19:53;;;;;;;4.15;0.13;;;20.40;70.80;;;;;;4918822;28;81503;-70
2022/10/22 13:22:30;;;;;;;1.45;0.10;;;20.40;71.30;;;;;;4911686;28;81297;-69
2022/10/22 13:24:58;;;;;;;1.25;0.22;;;20.40;70.70;;;;;;4915210;28;81762;-69
2022/10/22 13:27:26;;;;;;;3.22;0.10;;;20.40;69.30;;;;;;4918573;28;82645;-70
2022/10/22 13:29:52;;;;;;;1.30;0.10;;;20.40;68.70;;;;;;4914758;28;82191;-69
2022/10/22 13:32:36;;;;;;;0.95;0.10;;;20.40;70.10;;;;;;4918767;28;81428;-70
2022/10/22 13:35:02;;;;;;;0.95;0.10;;;20.40;70.20;;;;;;4914048;28;82858;-69
2022/10/22 13:37:31;;;;;;;1.30;0.10;;;20.50;70.80;;;;;;4917495;28;83177;-70
2022/10/22 13:39:57;;;;;;;0.85;0.15;;;20.50;70.90;;;;;;4920793;28;81822;-70
2022/10/22 13:42:22;;;;;;;2.50;0.22;;;20.50;71.50;;;;;;4921757;28;81154;-69
2022/10/22 13:44:48;;;;;;;0.95;0.13;;;20.50;71.40;;;;;;4921118;28;82523;-70
2022/10/22 13:47:33;;;;;;;1.88;0.15;;;20.50;71.30;;;;;;4922204;28;81760;-69
2022/10/22 13:50:02;;;;;;;1.10;0.20;;;20.50;71.50;;;;;;4921710;28;82422;-69
2022/10/22 13:52:40;;;;;;;3.72;0.20;;;20.40;70.70;;;;;;4912437;28;82329;-70
2022/10/22 13:55:30;;;;;;;0.70;0.10;;;20.40;70.30;;;;;;4917592;28;81864;-69
2022/10/22 13:58:16;;;;;;;2.47;0.13;;;20.40;69.60;;;;;;4917186;28;81648;-68
2022/10/22 14:00:45;;;;;;;1.83;0.20;;;20.40;69.60;;;;;;4912220;28;81788;-69
2022/10/22 14:03:13;;;;;;;0.60;0.28;;;20.40;69.80;;;;;;4915920;28;81933;-69
2022/10/22 14:05:38;;;;;;;1.02;0.10;;;20.40;69.80;;;;;;4915216;28;81611;-69
2022/10/22 14:08:12;;;;;;;0.80;0.32;;;20.40;69.00;;;;;;4913110;28;82120;-69
2022/10/22 14:10:38;;;;;;;0.65;0.30;;;20.40;68.30;;;;;;4920111;28;81837;-70
2022/10/22 14:13:06;;;;;;;0.68;0.13;;;20.40;68.60;;;;;;4913024;28;81858;-69
2022/10/22 14:15:33;;;;;;;0.70;0.10;;;20.40;68.90;;;;;;4909767;28;81756;-69
2022/10/22 14:17:59;;;;;;;1.90;0.10;;;20.40;68.90;;;;;;4918382;28;83298;-69
2022/10/22 14:20:29;;;;;;;2.20;0.28;;;20.40;68.00;;;;;;4923815;28;82982;-69
2022/10/22 14:22:59;;;;;;;0.73;0.15;;;20.40;67.10;;;;;;4913908;28;81866;-69
2022/10/22 14:25:25;;;;;;;0.98;0.10;;;20.40;66.90;;;;;;4923853;28;81910;-69
2022/10/22 14:27:51;;;;;;;2.85;0.13;;;20.30;66.70;;;;;;4921023;28;81361;-68
2022/10/22 14:30:23;;;;;;;0.70;0.10;;;20.20;67.70;;;;;;4916381;28;82097;-68
2022/10/22 14:32:49;;;;;;;3.85;0.10;;;20.20;68.00;;;;;;4916771;28;81977;-71
2022/10/22 14:35:20;;;;;;;0.30;0.10;;;20.20;67.90;;;;;;4922273;28;81783;-70
2022/10/22 14:37:46;;;;;;;1.45;0.20;;;20.20;68.10;;;;;;4911400;28;84070;-69
2022/10/22 14:40:14;;;;;;;1.05;0.15;;;20.10;68.00;;;;;;4917686;28;82033;-70
2022/10/22 14:42:42;;;;;;;1.15;0.28;;;20.10;68.30;;;;;;4917182;28;82597;-70
2022/10/22 14:45:20;;;;;;;0.38;0.10;;;20.00;68.30;;;;;;4918098;28;81725;-70
2022/10/22 14:47:47;;;;;;;4.32;0.10;;;20.00;68.70;;;;;;4916528;28;81335;-70
2022/10/22 14:50:13;;;;;;;0.35;0.10;;;20.00;68.50;;;;;;4914196;28;81536;-70
2022/10/22 14:52:41;;;;;;;3.15;0.10;;;19.90;69.00;;;;;;4905731;28;81860;-70
2022/10/22 14:55:11;;;;;;;1.05;0.30;;;19.90;70.00;;;;;;4911705;28;83382;-70
2022/10/22 14:57:38;;;;;;;0.38;0.10;;;19.90;70.20;;;;;;4920324;28;82743;-70
2022/10/22 15:00:06;;;;;;;0.40;0.10;;;19.90;71.00;;;;;;4914155;28;81311;-69
2022/10/22 15:02:31;;;;;;;1.40;0.10;;;19.90;71.00;;;;;;4907158;28;81338;-70
2022/10/22 15:04:57;;;;;;;1.08;0.13;;;19.80;71.90;;;;;;4917321;28;81608;-70
2022/10/22 15:07:23;;;;;;;2.47;0.20;;;19.80;72.20;;;;;;4905885;28;82432;-70
2022/10/22 15:09:49;;;;;;;1.40;0.20;;;19.70;72.60;;;;;;4917861;28;84139;-70
2022/10/22 15:12:15;;;;;;;0.95;0.20;;;19.70;72.90;;;;;;4912388;28;81783;-69
2022/10/22 15:14:41;;;;;;;2.55;0.20;;;19.70;72.90;;;;;;4911278;28;81802;-70
2022/10/22 15:17:07;;;;;;;0.70;0.20;;;19.60;73.20;;;;;;4913730;28;82372;-70
2022/10/22 15:19:32;;;;;;;1.02;0.20;;;19.60;73.10;;;;;;4912251;28;81639;-70
2022/10/22 15:21:58;;;;;;;0.80;0.13;;;19.50;72.60;;;;;;4914220;28;81857;-70
2022/10/22 15:24:24;;;;;;;1.77;0.10;;;19.50;72.60;;;;;;4920189;28;82652;-70
2022/10/22 15:26:52;;;;;;;0.77;0.13;;;19.50;72.50;;;;;;4915030;28;81732;-70
2022/10/22 15:29:18;;;;;;;1.45;0.10;;;19.50;72.60;;;;;;4920408;28;83755;-70
2022/10/22 15:31:50;;;;;;;1.95;0.20;;;19.40;72.60;;;;;;4912686;28;82127;-69
2022/10/22 15:34:26;;;;;;;3.05;0.28;;;19.30;72.50;;;;;;4913645;28;82652;-70
2022/10/22 15:36:55;;;;;;;1.00;0.10;;;19.30;72.50;;;;;;4918591;28;83680;-69
2022/10/22 15:39:21;;;;;;;0.60;0.10;;;19.20;72.90;;;;;;4915929;28;85148;-70
2022/10/22 15:41:48;;;;;;;5.57;0.20;;;19.10;73.70;;;;;;4918651;28;81857;-70
2022/10/22 15:44:20;;;;;;;2.42;0.20;;;19.00;74.80;;;;;;4912534;28;82002;-70
2022/10/22 15:46:46;;;;;;;1.63;0.13;;;18.90;75.40;;;;;;4912222;28;82795;-70
2022/10/22 15:49:13;;;;;;;1.08;0.22;;;18.70;76.00;;;;;;4915499;28;83348;-70
2022/10/22 15:51:39;;;;;;;2.63;0.20;;;18.60;76.30;;;;;;4919081;28;82467;-70
2022/10/22 15:54:05;;;;;;;2.45;0.20;;;18.50;76.40;;;;;;4921476;28;81496;-70
2022/10/22 15:56:31;;;;;;;1.73;0.10;;;18.50;77.70;;;;;;4918785;28;82353;-70
2022/10/22 15:59:04;;;;;;;1.05;0.30;;;18.30;79.40;;;;;;4921016;28;82107;-70
2022/10/22 16:01:32;;;;;;;3.42;0.10;;;18.20;79.20;;;;;;4919193;28;81203;-70
2022/10/22 16:04:04;;;;;;;2.83;0.40;;;18.10;80.00;;;;;;4919937;28;82261;-70
2022/10/22 16:06:38;;;;;;;3.63;0.20;;;18.00;80.20;;;;;;4911453;28;82210;-70